createdAt,value
2023-07-02T00:01:16.489Z,96706.41
2023-07-02T00:04:47.898Z,96700.52
2023-07-02T00:07:58.685Z,96703.29
2023-07-02T00:11:24.983Z,96703.18
2023-07-02T00:14:31.052Z,96705.13
2023-07-02T00:18:11.817Z,96704.42
2023-07-02T00:21:15.406Z,96703.73
2023-07-02T00:24:42.720Z,96706.19
2023-07-02T00:27:47.823Z,96705.23
2023-07-02T00:31:11.147Z,96702.38
2023-07-02T00:34:15.629Z,96696.84
2023-07-02T00:37:24.546Z,96696.73
2023-07-02T00:40:28.914Z,96694.73
2023-07-02T00:43:56.640Z,96698.33
2023-07-02T00:47:23.377Z,96692.95
2023-07-02T00:50:48.290Z,96690.84
2023-07-02T00:53:56.086Z,96692.13
2023-07-02T00:57:09.516Z,96690.45
2023-07-02T01:00:32.693Z,96692.54
2023-07-02T01:03:55.313Z,96693.17
2023-07-02T01:07:26.700Z,96692.59
2023-07-02T01:10:34.121Z,96688.23
2023-07-02T01:13:37.022Z,96686.75
2023-07-02T01:16:47.125Z,96686.42
2023-07-02T01:20:11.752Z,96682.77
2023-07-02T01:23:25.986Z,96679.13
2023-07-02T01:26:35.388Z,96681.33
2023-07-02T01:30:54.175Z,96683.02
2023-07-02T01:33:57.942Z,96680.74
2023-07-02T01:37:19.483Z,96674.21
2023-07-02T01:40:23.725Z,96675.45
2023-07-02T01:43:27.341Z,96675.34
2023-07-02T01:46:33.619Z,96674.33
2023-07-02T01:49:40.028Z,96677.60
2023-07-02T01:53:23.281Z,96681.63
2023-07-02T01:56:30.294Z,96677.76
2023-07-02T01:59:39.301Z,96678.41
2023-07-02T02:03:00.100Z,96680.05
2023-07-02T02:06:03.993Z,96677.85
2023-07-02T02:09:09.676Z,96675.87
2023-07-02T02:12:37.065Z,96673.33
2023-07-02T02:15:42.991Z,96673.19
2023-07-02T02:18:46.325Z,96676.70
2023-07-02T02:21:52.763Z,96681.11
2023-07-02T02:24:58.787Z,96680.63
2023-07-02T02:28:06.067Z,96676.36
2023-07-02T02:31:12.578Z,96679.44
2023-07-02T02:34:16.244Z,96672.92
2023-07-02T02:37:19.818Z,96678.46
2023-07-02T02:40:22.591Z,96674.22
2023-07-02T02:43:25.422Z,96673.52
2023-07-02T02:46:28.494Z,96671.48
2023-07-02T02:49:31.654Z,96668.91
2023-07-02T02:52:34.533Z,96672.02
2023-07-02T02:55:37.820Z,96673.21
2023-07-02T02:58:41.763Z,96670.36
2023-07-02T03:01:44.663Z,96673.89
2023-07-02T03:04:47.542Z,96671.80
2023-07-02T03:07:51.865Z,96669.76
2023-07-02T03:10:54.671Z,96672.92
2023-07-02T03:13:57.458Z,96668.09
2023-07-02T03:17:00.774Z,96670.56
2023-07-02T03:20:09.207Z,96671.50
2023-07-02T03:23:11.961Z,96670.27
2023-07-02T03:26:14.845Z,96666.83
2023-07-02T03:29:17.741Z,96670.35
2023-07-02T03:32:20.565Z,96672.71
2023-07-02T03:35:23.295Z,96680.41
2023-07-02T03:38:26.173Z,96683.92
2023-07-02T03:41:30.454Z,96686.13
2023-07-02T03:44:33.215Z,96688.17
2023-07-02T03:47:36.758Z,96686.63
2023-07-02T03:50:39.748Z,96688.39
2023-07-02T03:53:43.144Z,96686.02
2023-07-02T03:56:45.973Z,96690.59
2023-07-02T03:59:48.719Z,96685.65
2023-07-02T04:02:51.764Z,96689.60
2023-07-02T04:05:54.733Z,96690.27
2023-07-02T04:08:57.527Z,96688.02
2023-07-02T04:12:02.652Z,96687.10
2023-07-02T04:15:06.384Z,96683.75
2023-07-02T04:18:09.512Z,96685.46
2023-07-02T04:21:12.358Z,96692.63
2023-07-02T04:24:15.516Z,96691.73
2023-07-02T04:27:33.392Z,96696.08
2023-07-02T04:30:43.285Z,96698.39
2023-07-02T04:33:46.079Z,96701.98
2023-07-02T04:36:49.822Z,96701.25
2023-07-02T04:39:53.760Z,96703.42
2023-07-02T04:42:59.500Z,96712.65
2023-07-02T04:46:02.949Z,96713.83
2023-07-02T04:49:05.721Z,96715.27
2023-07-02T04:52:08.518Z,96713.55
2023-07-02T04:55:11.715Z,96709.62
2023-07-02T04:58:14.603Z,96709.55
2023-07-02T05:01:17.368Z,96712.97
2023-07-02T05:04:20.212Z,96713.72
2023-07-02T05:07:23.017Z,96712.94
2023-07-02T05:10:25.915Z,96716.87
2023-07-02T05:13:29.163Z,96718.77
2023-07-02T05:16:32.058Z,96719.31
2023-07-02T05:19:34.839Z,96717.54
2023-07-02T05:22:37.686Z,96725.50
2023-07-02T05:25:40.560Z,96723.89
2023-07-02T05:28:43.440Z,96724.94
2023-07-02T05:31:46.425Z,96726.22
2023-07-02T05:34:49.422Z,96727.09
2023-07-02T05:37:52.206Z,96732.61
2023-07-02T05:40:54.962Z,96733.55
2023-07-02T05:43:59.037Z,96733.11
2023-07-02T05:47:01.921Z,96737.75
2023-07-02T05:50:05.526Z,96743.86
2023-07-02T05:53:10.396Z,96739.11
2023-07-02T05:56:13.127Z,96745.78
2023-07-02T05:59:19.029Z,96747.66
2023-07-02T06:02:21.779Z,96751.40
2023-07-02T06:05:24.661Z,96757.66
2023-07-02T06:08:27.665Z,96756.73
2023-07-02T06:11:30.521Z,96754.46
2023-07-02T06:14:33.280Z,96755.02
2023-07-02T06:17:37.373Z,96758.02
2023-07-02T06:20:40.824Z,96759.42
2023-07-02T06:23:44.819Z,96760.08
2023-07-02T06:26:47.593Z,96764.65
2023-07-02T06:29:52.179Z,96765.36
2023-07-02T06:32:55.990Z,96762.94
2023-07-02T06:35:58.947Z,96769.76
2023-07-02T06:39:02.147Z,96772.98
2023-07-02T06:42:05.216Z,96777.30
2023-07-02T06:45:08.517Z,96783.18
2023-07-02T06:48:11.327Z,96783.75
2023-07-02T06:51:16.018Z,96786.98
2023-07-02T06:54:18.829Z,96797.84
2023-07-02T06:57:21.954Z,96794.08
2023-07-02T07:00:24.904Z,96792.27
2023-07-02T07:03:28.173Z,96792.95
2023-07-02T07:06:30.960Z,96792.74
2023-07-02T07:09:33.721Z,96799.55
2023-07-02T07:12:36.606Z,96803.98
2023-07-02T07:15:39.520Z,96806.17
2023-07-02T07:18:42.346Z,96809.73
2023-07-02T07:21:45.215Z,96812.52
2023-07-02T07:24:48.033Z,96813.02
2023-07-02T07:27:50.739Z,96812.44
2023-07-02T07:30:53.567Z,96818.14
2023-07-02T07:33:56.359Z,96818.97
2023-07-02T07:36:59.095Z,96826.81
2023-07-02T07:40:01.889Z,96830.27
2023-07-02T07:43:04.677Z,96832.61
2023-07-02T07:46:07.549Z,96839.17
2023-07-02T07:49:10.385Z,96839.91
2023-07-02T07:52:13.182Z,96847.05
2023-07-02T07:55:16.157Z,96848.20
2023-07-02T07:58:19.132Z,96850.68
2023-07-02T08:01:21.969Z,96852.48
2023-07-02T08:04:24.991Z,96861.28
2023-07-02T08:07:27.750Z,96865.45
2023-07-02T08:10:30.476Z,96869.23
2023-07-02T08:13:33.416Z,96868.33
2023-07-02T08:16:36.207Z,96874.05
2023-07-02T08:19:38.973Z,96874.21
2023-07-02T08:22:42.033Z,96875.08
2023-07-02T08:25:44.803Z,96878.26
2023-07-02T08:28:47.582Z,96877.09
2023-07-02T08:31:50.484Z,96876.31
2023-07-02T08:34:53.668Z,96869.15
2023-07-02T08:37:57.946Z,96867.83
2023-07-02T08:41:00.710Z,96872.80
2023-07-02T08:44:05.678Z,96878.58
2023-07-02T08:47:08.676Z,96875.48
2023-07-02T08:50:12.558Z,96873.20
2023-07-02T08:53:15.360Z,96873.86
2023-07-02T08:56:18.185Z,96872.56
2023-07-02T08:59:21.069Z,96874.41
2023-07-02T09:02:34.544Z,96876.86
2023-07-02T09:05:37.612Z,96879.30
2023-07-02T09:08:40.559Z,96878.73
2023-07-02T09:11:52.534Z,96874.52
2023-07-02T09:15:07.773Z,96875.09
2023-07-02T09:18:21.502Z,96874.83
2023-07-02T09:21:27.120Z,96874.33
2023-07-02T09:24:31.767Z,96872.98
2023-07-02T09:27:42.527Z,96869.21
2023-07-02T09:30:57.297Z,96874.20
2023-07-02T09:34:03.959Z,96873.82
2023-07-02T09:37:07.339Z,96872.88
2023-07-02T09:40:10.785Z,96866.27
2023-07-02T09:43:13.771Z,96855.52
2023-07-02T09:46:16.791Z,96853.06
2023-07-02T09:49:21.612Z,96853.85
2023-07-02T09:52:28.868Z,96846.35
2023-07-02T09:55:33.726Z,96843.37
2023-07-02T09:58:39.709Z,96847.52
2023-07-02T10:01:45.031Z,96847.16
2023-07-02T10:04:56.090Z,96849.22
2023-07-02T10:08:15.728Z,96849.20
2023-07-02T10:11:21.668Z,96846.27
2023-07-02T10:14:53.388Z,96844.45
2023-07-02T10:18:01.886Z,96844.04
2023-07-02T10:21:24.452Z,96842.15
2023-07-02T10:24:30.720Z,96838.26
2023-07-02T10:27:44.483Z,96831.96
2023-07-02T10:30:50.125Z,96826.91
2023-07-02T10:34:09.611Z,96827.31
2023-07-02T10:37:20.226Z,96830.10
2023-07-02T10:40:23.947Z,96829.80
2023-07-02T10:43:35.006Z,96826.64
2023-07-02T10:47:09.061Z,96822.73
2023-07-02T10:50:42.377Z,96821.16
2023-07-02T10:54:07.213Z,96822.30
2023-07-02T10:57:12.173Z,96819.44
2023-07-02T11:00:21.019Z,96817.01
2023-07-02T11:03:50.088Z,96814.70
2023-07-02T11:07:04.589Z,96809.67
2023-07-02T11:10:11.595Z,96809.55
2023-07-02T11:13:21.480Z,96803.08
2023-07-02T11:16:31.154Z,96799.02
2023-07-02T11:19:36.733Z,96808.02
2023-07-02T11:22:51.402Z,96811.91
2023-07-02T11:25:59.707Z,96803.95
2023-07-02T11:29:03.589Z,96802.62
2023-07-02T11:32:20.419Z,96794.52
2023-07-02T11:35:36.104Z,96800.27
2023-07-02T11:38:42.201Z,96800.17
2023-07-02T11:41:47.668Z,96802.70
2023-07-02T11:44:58.097Z,96803.41
2023-07-02T11:48:02.587Z,96804.04
2023-07-02T11:51:13.072Z,96804.48
2023-07-02T11:54:20.231Z,96806.04
2023-07-02T11:57:24.527Z,96804.30
2023-07-02T12:00:29.777Z,96797.33
2023-07-02T12:03:39.510Z,96795.19
2023-07-02T12:06:57.052Z,96799.98
2023-07-02T12:10:00.741Z,96795.02
2023-07-02T12:13:04.083Z,96796.96
2023-07-02T12:16:08.981Z,96798.09
2023-07-02T12:19:14.486Z,96797.60
2023-07-02T12:22:25.075Z,96801.33
2023-07-02T12:25:30.320Z,96802.73
2023-07-02T12:28:38.660Z,96800.95
2023-07-02T12:31:51.867Z,96806.40
2023-07-02T12:35:08.976Z,96804.88
2023-07-02T12:38:22.457Z,96814.27
2023-07-02T12:41:32.205Z,96813.70
2023-07-02T12:44:36.188Z,96805.09
2023-07-02T12:47:47.332Z,96801.96
2023-07-02T12:51:06.808Z,96810.64
2023-07-02T12:54:13.011Z,96810.74
2023-07-02T12:57:18.599Z,96808.03
2023-07-02T13:00:26.145Z,96817.71
2023-07-02T13:03:33.627Z,96820.25
2023-07-02T13:06:42.439Z,96829.98
2023-07-02T13:09:47.582Z,96855.50
2023-07-02T13:13:10.141Z,96865.60
2023-07-02T13:16:23.968Z,96882.60
2023-07-02T13:19:37.433Z,96897.40
2023-07-02T13:22:41.534Z,96914.27
2023-07-02T13:25:45.440Z,96924.94
2023-07-02T13:28:52.186Z,96925.46
2023-07-02T13:32:00.205Z,96925.16
2023-07-02T13:35:04.126Z,96921.89
2023-07-02T13:38:15.109Z,96924.22
2023-07-02T13:41:18.116Z,96922.11
2023-07-02T13:44:24.823Z,96925.58
2023-07-02T13:47:30.351Z,96931.48
2023-07-02T13:50:54.392Z,96933.80
2023-07-02T13:54:21.481Z,96933.45
2023-07-02T13:57:30.293Z,96930.51
2023-07-02T14:00:33.137Z,96927.14
2023-07-02T14:03:38.891Z,96923.75
2023-07-02T14:07:01.449Z,96919.00
2023-07-02T14:10:05.602Z,96920.45
2023-07-02T14:13:11.620Z,96923.31
2023-07-02T14:16:26.056Z,96911.95
2023-07-02T14:19:44.768Z,96914.27
2023-07-02T14:22:49.344Z,96912.95
2023-07-02T14:26:00.932Z,96909.96
2023-07-02T14:29:04.612Z,96909.42
2023-07-02T14:32:26.005Z,96910.63
2023-07-02T14:35:32.720Z,96913.36
2023-07-02T14:38:36.757Z,96916.39
2023-07-02T14:41:41.012Z,96911.89
2023-07-02T14:44:53.086Z,96908.63
2023-07-02T14:48:01.841Z,96910.12
2023-07-02T14:51:09.385Z,96909.71
2023-07-02T14:54:12.452Z,96911.05
2023-07-02T14:57:18.552Z,96908.92
2023-07-02T15:00:23.824Z,96910.42
2023-07-02T15:03:30.834Z,96909.02
2023-07-02T15:06:58.177Z,96909.40
2023-07-02T15:10:21.657Z,96910.08
2023-07-02T15:13:32.213Z,96908.60
2023-07-02T15:16:39.816Z,96909.25
2023-07-02T15:19:47.145Z,96908.59
2023-07-02T15:22:51.341Z,96907.49
2023-07-02T15:26:02.897Z,96908.20
2023-07-02T15:29:12.691Z,96902.52
2023-07-02T15:32:24.105Z,96904.23
2023-07-02T15:35:36.086Z,96908.71
2023-07-02T15:38:39.792Z,96902.58
2023-07-02T15:41:45.057Z,96900.13
2023-07-02T15:44:52.408Z,96898.86
2023-07-02T15:48:10.771Z,96902.02
2023-07-02T15:51:27.577Z,96906.95
2023-07-02T15:54:43.506Z,96904.81
2023-07-02T15:57:50.900Z,96902.55
2023-07-02T16:01:13.717Z,96902.62
2023-07-02T16:04:17.849Z,96904.80
2023-07-02T16:07:25.260Z,96903.34
2023-07-02T16:10:33.226Z,96906.96
2023-07-02T16:13:38.537Z,96911.08
2023-07-02T16:16:56.533Z,96910.24
2023-07-02T16:20:02.375Z,96910.85
2023-07-02T16:23:09.587Z,96916.56
2023-07-02T16:26:15.050Z,96919.46
2023-07-02T16:29:21.489Z,96923.17
2023-07-02T16:32:28.822Z,96925.30
2023-07-02T16:35:37.166Z,96928.13
2023-07-02T16:38:46.719Z,96928.38
2023-07-02T16:41:54.358Z,96928.96
2023-07-02T16:45:01.617Z,96931.20
2023-07-02T16:48:07.969Z,96932.14
2023-07-02T16:51:15.127Z,96934.64
2023-07-02T16:54:25.124Z,96937.01
2023-07-02T16:57:48.424Z,96932.41
2023-07-02T17:00:59.837Z,96937.55
2023-07-02T17:04:04.446Z,96934.91
2023-07-02T17:07:09.345Z,96935.27
2023-07-02T17:10:17.781Z,96935.68
2023-07-02T17:13:26.456Z,96940.31
2023-07-02T17:16:37.983Z,96947.02
2023-07-02T17:20:06.501Z,96947.14
2023-07-02T17:23:11.452Z,96943.52
2023-07-02T17:26:19.852Z,96944.27
2023-07-02T17:30:00.117Z,96952.25
2023-07-02T17:33:07.526Z,96951.16
2023-07-02T17:36:19.292Z,96959.14
2023-07-02T17:39:24.557Z,96963.38
2023-07-02T17:42:27.980Z,96962.92
2023-07-02T17:45:42.037Z,96964.73
2023-07-02T17:48:46.425Z,96967.88
2023-07-02T17:51:51.099Z,96963.88
2023-07-02T17:55:00.904Z,96962.31
2023-07-02T17:58:05.224Z,96963.04
2023-07-02T18:01:09.103Z,96967.23
2023-07-02T18:04:29.682Z,96967.10
2023-07-02T18:07:38.988Z,96969.48
2023-07-02T18:11:05.996Z,96972.80
2023-07-02T18:14:12.620Z,96974.89
2023-07-02T18:17:18.021Z,96974.09
2023-07-02T18:20:25.798Z,96974.65
2023-07-02T18:23:30.812Z,96975.81
2023-07-02T18:26:34.484Z,96980.79
2023-07-02T18:29:41.766Z,96982.77
2023-07-02T18:32:52.389Z,96983.05
2023-07-02T18:35:59.297Z,96986.20
2023-07-02T18:39:06.443Z,96995.59
2023-07-02T18:42:15.902Z,96997.48
2023-07-02T18:45:29.819Z,96999.08
2023-07-02T18:48:34.170Z,97002.45
2023-07-02T18:51:39.564Z,97003.59
2023-07-02T18:54:44.247Z,97006.41
2023-07-02T18:57:49.065Z,97010.02
2023-07-02T19:00:56.354Z,97012.55
2023-07-02T19:04:01.632Z,97017.80
2023-07-02T19:07:07.857Z,97025.77
2023-07-02T19:10:19.163Z,97034.04
2023-07-02T19:13:25.683Z,97034.30
2023-07-02T19:16:29.719Z,97039.25
2023-07-02T19:19:44.664Z,97043.67
2023-07-02T19:22:49.782Z,97049.24
2023-07-02T19:25:58.643Z,97050.64
2023-07-02T19:29:23.298Z,97062.13
2023-07-02T19:32:33.371Z,97067.75
2023-07-02T19:35:44.520Z,97070.19
2023-07-02T19:38:50.824Z,97068.10
2023-07-02T19:41:55.462Z,97069.30
2023-07-02T19:45:00.491Z,97071.31
2023-07-02T19:48:09.339Z,97074.20
2023-07-02T19:51:19.222Z,97080.06
2023-07-02T19:54:22.436Z,97081.98
2023-07-02T19:57:26.175Z,97085.58
2023-07-02T20:00:31.112Z,97088.98
2023-07-02T20:03:34.497Z,97088.54
2023-07-02T20:06:39.803Z,97094.65
2023-07-02T20:09:44.061Z,97100.92
2023-07-02T20:12:49.497Z,97098.55
2023-07-02T20:15:58.260Z,97103.32
2023-07-02T20:19:10.005Z,97105.78
2023-07-02T20:22:14.288Z,97109.20
2023-07-02T20:28:29.498Z,97117.83
2023-07-02T20:31:33.804Z,97124.20
2023-07-02T20:34:38.345Z,97127.04
2023-07-02T20:37:42.254Z,97130.71
2023-07-02T20:40:47.141Z,97127.52
2023-07-02T20:43:52.211Z,97121.73
2023-07-02T20:46:56.858Z,97127.61
2023-07-02T20:50:15.152Z,97130.88
2023-07-02T20:53:38.465Z,97132.04
2023-07-02T20:56:43.667Z,97133.25
2023-07-02T20:59:54.896Z,97133.23
2023-07-02T21:03:00.694Z,97132.39
2023-07-02T21:06:27.755Z,97133.09
2023-07-02T21:09:35.012Z,97134.30
2023-07-02T21:12:39.597Z,97139.66
2023-07-02T21:15:44.017Z,97138.55
2023-07-02T21:19:11.314Z,97139.88
2023-07-02T21:22:16.033Z,97144.95
2023-07-02T21:25:19.857Z,97149.61
2023-07-02T21:28:26.845Z,97152.16
2023-07-02T21:31:36.601Z,97153.89
2023-07-02T21:34:45.457Z,97157.14
2023-07-02T21:37:50.882Z,97161.34
2023-07-02T21:40:58.360Z,97164.45
2023-07-02T21:44:21.159Z,97169.09
2023-07-02T21:47:31.144Z,97171.27
2023-07-02T21:50:35.877Z,97170.59
2023-07-02T21:53:40.726Z,97174.52
2023-07-02T21:56:49.137Z,97173.27
2023-07-02T22:00:00.487Z,97174.41
2023-07-02T22:03:18.860Z,97175.15
2023-07-02T22:06:29.404Z,97174.89
2023-07-02T22:09:35.499Z,97181.67
2023-07-02T22:12:41.948Z,97182.02
2023-07-02T22:15:49.662Z,97186.38
2023-07-02T22:19:07.490Z,97190.19
2023-07-02T22:22:21.272Z,97191.21
2023-07-02T22:25:29.719Z,97193.80
2023-07-02T22:28:57.089Z,97196.84
2023-07-02T22:32:33.146Z,97197.77
2023-07-02T22:35:37.149Z,97195.95
2023-07-02T22:38:51.159Z,97193.09
2023-07-02T22:41:59.612Z,97197.10
2023-07-02T22:45:14.606Z,97199.52
2023-07-02T22:48:34.685Z,97202.11
2023-07-02T22:52:01.363Z,97197.51
2023-07-02T22:55:11.308Z,97197.51
2023-07-02T22:58:27.072Z,97193.94
2023-07-02T23:01:43.088Z,97196.40
2023-07-02T23:05:06.564Z,97195.36
2023-07-02T23:08:30.798Z,97197.11
2023-07-02T23:11:38.033Z,97208.44
2023-07-02T23:14:50.844Z,97210.27
2023-07-02T23:18:11.305Z,97215.73
2023-07-02T23:21:18.368Z,97217.26
2023-07-02T23:24:39.648Z,97219.20
2023-07-02T23:28:07.252Z,97217.80
2023-07-02T23:31:44.675Z,97215.89
2023-07-02T23:34:57.201Z,97215.47
2023-07-02T23:38:07.535Z,97214.77
2023-07-02T23:41:39.774Z,97219.84
2023-07-02T23:44:53.402Z,97218.58
2023-07-02T23:47:57.406Z,97219.04
2023-07-02T23:51:08.783Z,97220.91
2023-07-02T23:54:32.676Z,97226.00
2023-07-02T23:57:36.156Z,97225.79
